createdAt,value
2018-08-11T00:00:20.240Z,101154.84
2018-08-11T00:02:47.338Z,101150.38
2018-08-11T00:05:14.380Z,101146.42
2018-08-11T00:07:41.463Z,101134.53
2018-08-11T00:10:08.855Z,101131.20
2018-08-11T00:12:36.159Z,101129.02
2018-08-11T00:15:04.607Z,101123.96
2018-08-11T00:17:31.644Z,101122.53
2018-08-11T00:19:58.735Z,101122.33
2018-08-11T00:22:26.088Z,101117.95
2018-08-11T00:24:53.122Z,101118.30
2018-08-11T00:27:20.208Z,101120.67
2018-08-11T00:29:47.612Z,101113.80
2018-08-11T00:32:14.663Z,101113.48
2018-08-11T00:34:41.719Z,101110.39
2018-08-11T00:37:08.919Z,101106.94
2018-08-11T00:39:35.976Z,101097.34
2018-08-11T00:42:03.105Z,101090.42
2018-08-11T00:44:30.191Z,101086.94
2018-08-11T00:46:57.258Z,101089.22
2018-08-11T00:49:24.345Z,101087.50
2018-08-11T00:51:51.456Z,101084.81
2018-08-11T00:54:18.497Z,101085.05
2018-08-11T00:56:45.551Z,101088.00
2018-08-11T00:59:12.763Z,101080.86
2018-08-11T01:01:39.861Z,101075.34
2018-08-11T01:04:06.981Z,101076.60
2018-08-11T01:06:34.156Z,101078.09
2018-08-11T01:09:01.155Z,101070.63
2018-08-11T01:11:28.160Z,101066.96
2018-08-11T01:13:55.159Z,101067.27
2018-08-11T01:16:22.571Z,101067.36
2018-08-11T01:18:49.605Z,101064.73
2018-08-11T01:21:16.713Z,101060.28
2018-08-11T01:23:43.747Z,101059.42
2018-08-11T01:26:10.847Z,101056.20
2018-08-11T01:28:37.856Z,101053.84
2018-08-11T01:31:05.151Z,101044.69
2018-08-11T01:33:32.353Z,101046.91
2018-08-11T01:35:59.375Z,101045.24
2018-08-11T01:38:26.714Z,101045.00
2018-08-11T01:40:53.747Z,101042.50
2018-08-11T01:43:20.796Z,101037.66
2018-08-11T01:45:47.893Z,101036.18
2018-08-11T01:48:14.932Z,101038.53
2018-08-11T01:50:52.171Z,101039.31
2018-08-11T01:53:19.286Z,101042.78
2018-08-11T01:55:46.303Z,101033.86
2018-08-11T01:58:13.319Z,101028.09
2018-08-11T02:00:40.442Z,101027.45
2018-08-11T02:03:07.503Z,101024.00
2018-08-11T02:05:34.620Z,101029.18
2018-08-11T02:08:01.700Z,101014.66
2018-08-11T02:10:28.727Z,101016.32
2018-08-11T02:12:55.801Z,101018.61
2018-08-11T02:15:22.863Z,101017.19
2018-08-11T02:17:49.872Z,101021.47
2018-08-11T02:20:18.408Z,101027.45
2018-08-11T02:22:46.452Z,101025.39
2018-08-11T02:25:13.508Z,101035.83
2018-08-11T02:27:40.770Z,101037.41
2018-08-11T02:30:09.963Z,101048.58
2018-08-11T02:32:37.325Z,101056.02
2018-08-11T02:35:05.508Z,101059.71
2018-08-11T02:37:32.588Z,101055.70
2018-08-11T02:39:59.605Z,101060.14
2018-08-11T02:42:27.042Z,101062.97
2018-08-11T02:44:54.081Z,101064.23
2018-08-11T02:47:21.116Z,101070.55
2018-08-11T02:49:48.178Z,101069.12
2018-08-11T02:52:15.254Z,101066.63
2018-08-11T02:54:42.327Z,101065.05
2018-08-11T02:57:09.387Z,101064.61
2018-08-11T02:59:36.440Z,101056.66
2018-08-11T03:02:03.571Z,101054.98
2018-08-11T03:04:30.659Z,101049.12
2018-08-11T03:06:57.728Z,101037.89
2018-08-11T03:09:24.947Z,101037.43
2018-08-11T03:11:52.239Z,101038.84
2018-08-11T03:14:19.375Z,101037.48
2018-08-11T03:16:46.452Z,101045.02
2018-08-11T03:19:13.512Z,101040.27
2018-08-11T03:21:40.574Z,101033.48
2018-08-11T03:24:07.972Z,101037.43
2018-08-11T03:26:35.068Z,101031.02
2018-08-11T03:29:02.127Z,101035.20
2018-08-11T03:31:29.220Z,101033.69
2018-08-11T03:33:56.293Z,101041.07
2018-08-11T03:36:23.348Z,101038.75
2018-08-11T03:38:50.418Z,101039.61
2018-08-11T03:41:17.504Z,101043.26
2018-08-11T03:43:44.576Z,101043.25
2018-08-11T03:46:11.700Z,101045.44
2018-08-11T03:48:38.775Z,101043.86
2018-08-11T03:51:05.812Z,101035.46
2018-08-11T03:53:32.904Z,101049.73
2018-08-11T03:55:59.917Z,101058.58
2018-08-11T03:58:26.943Z,101064.28
2018-08-11T04:00:53.987Z,101069.34
2018-08-11T04:03:20.996Z,101067.27
2018-08-11T04:05:48.045Z,101067.55
2018-08-11T04:08:15.129Z,101058.89
2018-08-11T04:10:42.196Z,101066.79
2018-08-11T04:13:09.416Z,101068.82
2018-08-11T04:15:36.451Z,101069.36
2018-08-11T04:18:03.528Z,101066.68
2018-08-11T04:20:30.557Z,101062.46
2018-08-11T04:22:57.617Z,101067.39
2018-08-11T04:25:24.633Z,101069.77
2018-08-11T04:27:51.650Z,101086.70
2018-08-11T04:30:18.751Z,101086.32
2018-08-11T04:32:46.109Z,101091.52
2018-08-11T04:35:13.131Z,101080.38
2018-08-11T04:37:40.294Z,101081.28
2018-08-11T04:40:07.357Z,101084.43
2018-08-11T04:42:34.432Z,101080.94
2018-08-11T04:45:01.515Z,101063.22
2018-08-11T04:47:28.614Z,101072.80
2018-08-11T04:50:02.596Z,101076.52
2018-08-11T04:52:29.958Z,101087.45
2018-08-11T04:54:56.987Z,101099.44
2018-08-11T04:57:24.044Z,101099.66
2018-08-11T04:59:51.153Z,101090.25
2018-08-11T05:02:18.216Z,101086.87
2018-08-11T05:04:45.288Z,101079.09
2018-08-11T05:07:12.349Z,101084.34
2018-08-11T05:09:39.688Z,101101.59
2018-08-11T05:12:06.749Z,101108.78
2018-08-11T05:14:33.879Z,101105.11
2018-08-11T05:17:01.051Z,101093.19
2018-08-11T05:19:28.149Z,101085.77
2018-08-11T05:21:55.295Z,101090.30
2018-08-11T05:24:22.571Z,101111.80
2018-08-11T05:26:49.579Z,101089.31
2018-08-11T05:29:16.647Z,101086.61
2018-08-11T05:31:43.743Z,101085.56
2018-08-11T05:34:10.852Z,101083.91
2018-08-11T05:36:37.858Z,101084.98
2018-08-11T05:39:08.577Z,101086.31
2018-08-11T05:41:35.790Z,101094.08
2018-08-11T05:44:02.888Z,101092.53
2018-08-11T05:46:29.913Z,101092.06
2018-08-11T05:48:56.932Z,101090.67
2018-08-11T05:51:24.017Z,101099.39
2018-08-11T05:53:51.027Z,101108.39
2018-08-11T05:56:18.051Z,101109.80
2018-08-11T05:58:45.070Z,101100.77
2018-08-11T06:01:12.392Z,101100.41
2018-08-11T06:03:39.407Z,101106.21
2018-08-11T06:06:06.449Z,101106.71
2018-08-11T06:08:33.484Z,101106.60
2018-08-11T06:11:00.524Z,101112.86
2018-08-11T06:13:27.550Z,101111.98
2018-08-11T06:15:54.631Z,101105.39
2018-08-11T06:18:21.942Z,101110.04
2018-08-11T06:20:48.980Z,101109.10
2018-08-11T06:23:16.061Z,101104.30
2018-08-11T06:25:43.132Z,101107.73
2018-08-11T06:28:10.180Z,101100.85
2018-08-11T06:30:37.535Z,101101.22
2018-08-11T06:33:04.910Z,101101.22
2018-08-11T06:35:32.543Z,101102.59
2018-08-11T06:37:59.899Z,101100.95
2018-08-11T06:40:27.125Z,101095.77
2018-08-11T06:42:54.128Z,101097.00
2018-08-11T06:45:21.820Z,101109.39
2018-08-11T06:47:48.880Z,101098.27
2018-08-11T06:50:15.900Z,101103.16
2018-08-11T06:52:43.619Z,101099.38
2018-08-11T06:55:10.790Z,101103.26
2018-08-11T06:57:37.888Z,101094.63
2018-08-11T07:00:05.018Z,101103.31
2018-08-11T07:02:32.410Z,101099.77
2018-08-11T07:04:59.487Z,101092.72
2018-08-11T07:07:26.480Z,101097.14
2018-08-11T07:09:53.528Z,101091.53
2018-08-11T07:12:20.627Z,101107.77
2018-08-11T07:14:48.225Z,101106.21
2018-08-11T07:17:15.318Z,101103.45
2018-08-11T07:19:42.757Z,101105.88
2018-08-11T07:22:09.855Z,101106.02
2018-08-11T07:24:37.008Z,101105.05
2018-08-11T07:27:04.115Z,101113.31
2018-08-11T07:29:31.135Z,101100.98
2018-08-11T07:31:58.283Z,101106.41
2018-08-11T07:34:25.353Z,101106.61
2018-08-11T07:36:53.155Z,101106.14
2018-08-11T07:39:20.499Z,101117.66
2018-08-11T07:41:47.632Z,101113.55
2018-08-11T07:44:15.000Z,101102.03
2018-08-11T07:46:42.052Z,101105.72
2018-08-11T07:49:09.088Z,101109.42
2018-08-11T07:51:36.177Z,101107.52
2018-08-11T07:54:03.171Z,101111.95
2018-08-11T07:56:31.466Z,101103.41
2018-08-11T07:58:58.491Z,101108.84
2018-08-11T08:01:25.555Z,101107.80
2018-08-11T08:03:52.604Z,101101.70
2018-08-11T08:06:19.635Z,101099.91
2018-08-11T08:08:46.665Z,101098.91
2018-08-11T08:11:13.800Z,101100.64
2018-08-11T08:13:40.920Z,101112.22
2018-08-11T08:16:08.077Z,101116.62
2018-08-11T08:18:35.192Z,101109.13
2018-08-11T08:21:02.381Z,101116.67
2018-08-11T08:23:29.677Z,101122.19
2018-08-11T08:25:56.705Z,101122.45
2018-08-11T08:28:23.688Z,101127.52
2018-08-11T08:30:51.810Z,101110.98
2018-08-11T08:33:18.795Z,101118.17
2018-08-11T08:35:45.788Z,101107.06
2018-08-11T08:38:13.120Z,101115.60
2018-08-11T08:40:40.317Z,101107.52
2018-08-11T08:43:07.330Z,101106.91
2018-08-11T08:45:34.544Z,101103.02
2018-08-11T08:48:01.556Z,101098.46
2018-08-11T08:50:28.882Z,101108.78
2018-08-11T08:52:56.967Z,101107.40
2018-08-11T08:55:24.238Z,101103.14
2018-08-11T08:57:51.467Z,101097.79
2018-08-11T09:00:18.997Z,101099.08
2018-08-11T09:02:47.179Z,101090.59
2018-08-11T09:05:14.627Z,101085.19
2018-08-11T09:07:41.883Z,101086.51
2018-08-11T09:10:08.927Z,101086.50
2018-08-11T09:12:36.835Z,101079.34
2018-08-11T09:15:05.023Z,101082.97
2018-08-11T09:17:32.272Z,101093.38
2018-08-11T09:20:00.011Z,101051.19
2018-08-11T09:22:27.044Z,101087.91
2018-08-11T09:24:54.071Z,101093.66
2018-08-11T09:27:21.064Z,101088.41
2018-08-11T09:29:48.067Z,101084.47
2018-08-11T09:32:15.132Z,101088.54
2018-08-11T09:34:42.143Z,101080.66
2018-08-11T09:37:09.183Z,101086.86
2018-08-11T09:39:36.349Z,101084.56
2018-08-11T09:42:03.370Z,101082.73
2018-08-11T09:44:30.468Z,101085.81
2018-08-11T09:46:57.576Z,101094.02
2018-08-11T09:49:24.653Z,101095.96
2018-08-11T09:51:51.692Z,101091.75
2018-08-11T09:54:18.890Z,101099.36
2018-08-11T09:56:46.206Z,101124.28
2018-08-11T09:59:13.186Z,101142.23
2018-08-11T10:01:43.362Z,101136.22
2018-08-11T10:04:10.438Z,101132.50
2018-08-11T10:06:37.421Z,101130.91
2018-08-11T10:09:07.039Z,101131.24
2018-08-11T10:11:34.033Z,101126.97
2018-08-11T10:14:01.059Z,101118.90
2018-08-11T10:16:28.044Z,101113.16
2018-08-11T10:18:55.014Z,101121.62
2018-08-11T10:21:22.165Z,101118.42
2018-08-11T10:23:49.355Z,101116.98
2018-08-11T10:26:16.410Z,101111.63
2018-08-11T10:28:43.444Z,101114.59
2018-08-11T10:31:10.594Z,101109.84
2018-08-11T10:33:37.651Z,101112.16
2018-08-11T10:36:04.754Z,101124.59
2018-08-11T10:41:13.222Z,101125.39
2018-08-11T10:43:40.240Z,101123.72
2018-08-11T10:46:07.265Z,101121.09
2018-08-11T10:48:34.533Z,101125.83
2018-08-11T10:51:01.635Z,101121.30
2018-08-11T10:53:28.616Z,101126.13
2018-08-11T10:55:55.806Z,101132.37
2018-08-11T10:58:22.886Z,101127.45
2018-08-11T11:00:49.923Z,101125.98
2018-08-11T11:03:16.931Z,101132.48
2018-08-11T11:05:44.068Z,101131.00
2018-08-11T11:08:11.451Z,101128.42
2018-08-11T11:10:38.480Z,101121.59
2018-08-11T11:13:05.482Z,101122.30
2018-08-11T11:15:32.491Z,101126.34
2018-08-11T11:17:59.491Z,101133.56
2018-08-11T11:20:26.544Z,101131.03
2018-08-11T11:22:53.555Z,101124.92
2018-08-11T11:25:20.635Z,101123.72
2018-08-11T11:27:47.648Z,101114.95
2018-08-11T11:30:14.659Z,101118.61
2018-08-11T11:32:41.743Z,101115.82
2018-08-11T11:35:09.341Z,101116.38
2018-08-11T11:37:36.609Z,101116.47
2018-08-11T11:40:04.557Z,101119.10
2018-08-11T11:42:31.592Z,101119.11
2018-08-11T11:44:58.635Z,101116.59
2018-08-11T11:47:25.626Z,101128.17
2018-08-11T11:49:53.011Z,101122.34
2018-08-11T11:52:20.454Z,101127.92
2018-08-11T11:54:47.645Z,101138.78
2018-08-11T11:57:14.907Z,101133.26
2018-08-11T11:59:42.078Z,101135.33
2018-08-11T12:02:09.669Z,101131.95
2018-08-11T12:04:36.755Z,101125.55
2018-08-11T12:07:04.396Z,101137.02
2018-08-11T12:09:31.760Z,101131.78
2018-08-11T12:11:59.123Z,101132.42
2018-08-11T12:14:26.160Z,101135.98
2018-08-11T12:16:53.574Z,101150.67
2018-08-11T12:19:21.151Z,101150.02
2018-08-11T12:21:48.455Z,101124.73
2018-08-11T12:24:15.426Z,101129.48
2018-08-11T12:26:42.608Z,101134.06
2018-08-11T12:29:09.763Z,101139.75
2018-08-11T12:31:36.739Z,101145.84
2018-08-11T12:34:03.824Z,101158.53
2018-08-11T12:36:30.903Z,101157.14
2018-08-11T12:38:57.899Z,101138.02
2018-08-11T12:41:25.135Z,101135.92
2018-08-11T12:43:52.206Z,101136.09
2018-08-11T12:46:19.196Z,101137.86
2018-08-11T12:48:46.191Z,101135.28
2018-08-11T12:51:13.374Z,101130.28
2018-08-11T12:53:40.344Z,101124.61
2018-08-11T12:56:07.540Z,101124.93
2018-08-11T12:58:34.601Z,101131.07
2018-08-11T13:01:01.698Z,101140.47
2018-08-11T13:03:28.912Z,101147.59
2018-08-11T13:05:56.044Z,101144.03
2018-08-11T13:08:23.195Z,101148.22
2018-08-11T13:10:50.212Z,101144.73
2018-08-11T13:13:17.234Z,101145.17
2018-08-11T13:15:44.323Z,101140.86
2018-08-11T13:18:11.321Z,101137.19
2018-08-11T13:20:38.337Z,101142.91
2018-08-11T13:23:05.336Z,101142.93
2018-08-11T13:25:32.338Z,101146.87
2018-08-11T13:27:59.331Z,101143.34
2018-08-11T13:30:26.408Z,101147.59
2018-08-11T13:32:53.410Z,101144.79
2018-08-11T13:35:20.438Z,101151.05
2018-08-11T13:37:47.520Z,101155.17
2018-08-11T13:40:14.511Z,101151.67
2018-08-11T13:42:41.538Z,101152.64
2018-08-11T13:45:08.635Z,101155.02
2018-08-11T13:47:35.739Z,101142.98
2018-08-11T13:50:03.816Z,101154.51
2018-08-11T13:52:30.819Z,101162.83
2018-08-11T13:54:57.841Z,101199.52
2018-08-11T13:57:24.809Z,101192.86
2018-08-11T13:59:51.818Z,101184.70
2018-08-11T14:02:18.872Z,101174.33
2018-08-11T14:04:46.017Z,101159.13
2018-08-11T14:07:13.069Z,101159.77
2018-08-11T14:09:40.064Z,101164.17
2018-08-11T14:12:07.074Z,101164.77
2018-08-11T14:14:34.420Z,101160.56
2018-08-11T14:17:01.436Z,101164.17
2018-08-11T14:19:28.441Z,101187.57
2018-08-11T14:21:55.588Z,101194.56
2018-08-11T14:24:22.616Z,101210.73
2018-08-11T14:26:49.635Z,101199.98
2018-08-11T14:29:16.732Z,101196.25
2018-08-11T14:31:43.732Z,101202.69
2018-08-11T14:34:10.740Z,101209.58
2018-08-11T14:36:37.748Z,101219.97
2018-08-11T14:39:06.970Z,101234.10
2018-08-11T14:41:33.968Z,101243.02
2018-08-11T14:44:01.040Z,101230.91
2018-08-11T14:46:28.020Z,101216.44
2018-08-11T14:48:55.032Z,101206.52
2018-08-11T14:51:22.310Z,101199.33
2018-08-11T14:53:49.357Z,101192.47
2018-08-11T14:56:16.375Z,101184.48
2018-08-11T14:58:43.610Z,101183.67
2018-08-11T15:01:10.626Z,101176.91
2018-08-11T15:03:37.664Z,101183.64
2018-08-11T15:06:04.656Z,101185.08
2018-08-11T15:08:31.760Z,101191.98
2018-08-11T15:10:58.756Z,101189.95
2018-08-11T15:13:25.826Z,101187.95
2018-08-11T15:15:52.974Z,101191.89
2018-08-11T15:18:19.955Z,101186.73
2018-08-11T15:20:47.319Z,101190.42
2018-08-11T15:23:14.598Z,101199.58
2018-08-11T15:25:41.639Z,101176.61
2018-08-11T15:28:08.817Z,101190.62
2018-08-11T15:30:35.888Z,101193.95
2018-08-11T15:33:02.935Z,101195.94
2018-08-11T15:35:30.000Z,101194.27
2018-08-11T15:37:57.039Z,101202.21
2018-08-11T15:40:24.048Z,101205.83
2018-08-11T15:42:51.036Z,101197.54
2018-08-11T15:45:18.291Z,101213.04
2018-08-11T15:47:45.589Z,101217.54
2018-08-11T15:50:12.694Z,101219.43
2018-08-11T15:52:39.695Z,101222.27
2018-08-11T15:55:06.716Z,101227.00
2018-08-11T15:57:33.735Z,101223.53
2018-08-11T16:00:00.729Z,101234.11
2018-08-11T16:02:27.748Z,101233.64
2018-08-11T16:04:54.771Z,101225.19
2018-08-11T16:07:21.820Z,101233.50
2018-08-11T16:09:48.848Z,101235.48
2018-08-11T16:12:15.847Z,101231.59
2018-08-11T16:14:42.959Z,101224.47
2018-08-11T16:17:09.948Z,101233.16
2018-08-11T16:19:37.120Z,101240.16
2018-08-11T16:22:04.217Z,101240.32
2018-08-11T16:24:31.212Z,101243.31
2018-08-11T16:26:58.200Z,101244.25
2018-08-11T16:29:25.255Z,101245.98
2018-08-11T16:31:52.625Z,101244.97
2018-08-11T16:34:19.697Z,101245.17
2018-08-11T16:36:46.712Z,101247.91
2018-08-11T16:39:13.809Z,101251.55
2018-08-11T16:41:40.847Z,101251.02
2018-08-11T16:44:07.866Z,101250.00
2018-08-11T16:46:34.882Z,101252.02
2018-08-11T16:49:01.919Z,101252.97
2018-08-11T16:51:28.960Z,101260.56
2018-08-11T16:53:56.309Z,101253.75
2018-08-11T16:56:23.319Z,101257.83
2018-08-11T16:58:50.314Z,101261.00
2018-08-11T17:01:17.427Z,101261.65
2018-08-11T17:03:44.412Z,101258.14
2018-08-11T17:06:11.420Z,101261.94
2018-08-11T17:08:38.456Z,101270.83
2018-08-11T17:11:05.480Z,101259.50
2018-08-11T17:16:13.959Z,101267.27
2018-08-11T17:18:40.985Z,101264.52
2018-08-11T17:21:07.968Z,101262.59
2018-08-11T17:23:35.369Z,101274.05
2018-08-11T17:26:02.388Z,101273.95
2018-08-11T17:28:29.380Z,101267.53
2018-08-11T17:30:56.371Z,101268.37
2018-08-11T17:33:23.415Z,101275.95
2018-08-11T17:35:50.435Z,101273.83
2018-08-11T17:38:17.465Z,101280.78
2018-08-11T17:40:44.467Z,101279.80
2018-08-11T17:43:11.451Z,101281.89
2018-08-11T17:45:38.530Z,101280.13
2018-08-11T17:48:05.837Z,101279.80
2018-08-11T17:50:33.179Z,101281.55
2018-08-11T17:53:00.169Z,101282.33
2018-08-11T17:55:27.266Z,101287.73
2018-08-11T17:57:54.731Z,101289.39
2018-08-11T18:00:21.752Z,101288.68
2018-08-11T18:02:48.776Z,101287.34
2018-08-11T18:05:15.774Z,101281.17
2018-08-11T18:07:42.823Z,101294.71
2018-08-11T18:10:09.830Z,101291.46
2018-08-11T18:12:36.835Z,101297.37
2018-08-11T18:15:04.206Z,101300.56
2018-08-11T18:17:31.204Z,101299.09
2018-08-11T18:19:58.211Z,101306.62
2018-08-11T18:22:25.204Z,101308.65
2018-08-11T18:24:52.207Z,101313.19
2018-08-11T18:27:19.216Z,101311.02
2018-08-11T18:29:46.560Z,101308.91
2018-08-11T18:32:13.585Z,101316.59
2018-08-11T18:34:40.658Z,101311.98
2018-08-11T18:37:07.641Z,101313.81
2018-08-11T18:39:34.685Z,101313.50
2018-08-11T18:42:01.691Z,101315.06
2018-08-11T18:44:28.711Z,101315.23
2018-08-11T18:46:55.721Z,101318.96
2018-08-11T18:49:23.039Z,101315.47
2018-08-11T18:51:50.485Z,101314.27
2018-08-11T18:54:17.506Z,101314.00
2018-08-11T18:56:44.587Z,101325.94
2018-08-11T18:59:11.575Z,101324.41
2018-08-11T19:01:38.623Z,101329.86
2018-08-11T19:04:05.927Z,101330.02
2018-08-11T19:06:33.020Z,101331.12
2018-08-11T19:08:59.999Z,101331.47
2018-08-11T19:11:27.383Z,101337.72
2018-08-11T19:13:54.424Z,101334.45
2018-08-11T19:16:21.445Z,101343.45
2018-08-11T19:18:48.494Z,101346.27
2018-08-11T19:21:15.539Z,101343.96
2018-08-11T19:23:42.579Z,101345.92
2018-08-11T19:26:09.767Z,101351.30
2018-08-11T19:28:36.795Z,101351.70
2018-08-11T19:31:03.888Z,101352.16
2018-08-11T19:33:30.943Z,101350.25
2018-08-11T19:35:57.962Z,101351.63
2018-08-11T19:38:24.996Z,101346.44
2018-08-11T19:40:52.013Z,101352.18
2018-08-11T19:43:19.058Z,101351.42
2018-08-11T19:45:46.179Z,101355.97
2018-08-11T19:48:13.208Z,101365.31
2018-08-11T19:50:40.227Z,101364.06
2018-08-11T19:53:07.367Z,101351.83
2018-08-11T19:55:34.380Z,101366.15
2018-08-11T19:58:01.382Z,101360.92
2018-08-11T20:00:28.428Z,101358.86
2018-08-11T20:02:55.446Z,101354.61
2018-08-11T20:05:22.481Z,101358.97
2018-08-11T20:07:49.534Z,101356.84
2018-08-11T20:10:16.523Z,101352.19
2018-08-11T20:12:43.537Z,101353.16
2018-08-11T20:15:10.527Z,101353.48
2018-08-11T20:17:37.851Z,101356.01
2018-08-11T20:20:05.690Z,101354.24
2018-08-11T20:22:32.718Z,101356.88
2018-08-11T20:24:59.758Z,101356.44
2018-08-11T20:27:26.768Z,101353.41
2018-08-11T20:29:54.115Z,101355.86
2018-08-11T20:32:21.145Z,101359.75
2018-08-11T20:34:48.131Z,101358.59
2018-08-11T20:37:15.146Z,101356.57
2018-08-11T20:39:42.292Z,101354.16
2018-08-11T20:42:09.387Z,101350.29
2018-08-11T20:44:36.430Z,101348.27
2018-08-11T20:47:03.459Z,101356.70
2018-08-11T20:49:30.490Z,101356.41
2018-08-11T20:51:57.504Z,101359.73
2018-08-11T20:54:24.548Z,101360.41
2018-08-11T20:56:51.834Z,101354.28
2018-08-11T20:59:18.844Z,101354.49
2018-08-11T21:01:46.070Z,101364.89
2018-08-11T21:04:13.227Z,101357.20
2018-08-11T21:06:40.251Z,101352.16
2018-08-11T21:09:09.282Z,101345.81
2018-08-11T21:11:36.321Z,101347.01
2018-08-11T21:14:03.844Z,101351.45
2018-08-11T21:16:30.907Z,101348.42
2018-08-11T21:18:57.875Z,101343.38
2018-08-11T21:21:24.963Z,101351.31
2018-08-11T21:23:52.061Z,101343.27
2018-08-11T21:26:18.984Z,101342.58
2018-08-11T21:28:45.988Z,101340.63
2018-08-11T21:31:13.106Z,101342.66
2018-08-11T21:33:40.232Z,101348.07
2018-08-11T21:36:07.359Z,101348.03
2018-08-11T21:38:34.571Z,101347.52
2018-08-11T21:41:01.597Z,101346.34
2018-08-11T21:43:28.728Z,101342.88
2018-08-11T21:45:55.843Z,101343.17
2018-08-11T21:48:22.851Z,101336.24
2018-08-11T21:50:49.863Z,101342.73
2018-08-11T21:53:16.855Z,101342.02
2018-08-11T21:55:43.869Z,101340.24
2018-08-11T21:58:11.093Z,101338.29
2018-08-11T22:00:38.127Z,101344.61
2018-08-11T22:03:06.401Z,101347.13
2018-08-11T22:05:33.419Z,101347.23
2018-08-11T22:08:01.628Z,101346.84
2018-08-11T22:10:29.090Z,101344.61
2018-08-11T22:12:56.139Z,101344.71
2018-08-11T22:15:23.255Z,101343.95
2018-08-11T22:17:50.296Z,101342.58
2018-08-11T22:20:17.621Z,101348.10
2018-08-11T22:22:44.719Z,101343.16
2018-08-11T22:25:12.198Z,101339.56
2018-08-11T22:27:39.507Z,101338.01
2018-08-11T22:30:07.096Z,101334.22
2018-08-11T22:32:34.447Z,101337.07
2018-08-11T22:35:02.412Z,101334.76
2018-08-11T22:37:29.483Z,101330.66
2018-08-11T22:39:56.791Z,101333.28
2018-08-11T22:42:23.915Z,101331.00
2018-08-11T22:44:50.984Z,101316.29
2018-08-11T22:47:18.229Z,101330.36
2018-08-11T22:49:45.134Z,101319.89
2018-08-11T22:52:12.302Z,101320.39
2018-08-11T22:54:39.505Z,101320.18
2018-08-11T22:57:06.531Z,101317.61
2018-08-11T22:59:33.541Z,101319.34
2018-08-11T23:02:00.544Z,101319.27
2018-08-11T23:04:27.558Z,101318.55
2018-08-11T23:06:54.645Z,101313.17
2018-08-11T23:09:21.656Z,101310.33
2018-08-11T23:11:48.700Z,101306.76
2018-08-11T23:14:15.697Z,101306.72
2018-08-11T23:16:42.698Z,101301.50
2018-08-11T23:19:09.800Z,101293.31
2018-08-11T23:21:36.898Z,101296.34
2018-08-11T23:24:03.948Z,101298.55
2018-08-11T23:26:31.028Z,101295.27
2018-08-11T23:28:58.055Z,101297.78
2018-08-11T23:31:25.100Z,101285.81
2018-08-11T23:33:52.512Z,101289.03
2018-08-11T23:36:19.662Z,101285.16
2018-08-11T23:38:46.659Z,101290.86
2018-08-11T23:41:13.760Z,101288.52
2018-08-11T23:43:40.748Z,101282.50
2018-08-11T23:46:07.769Z,101292.78
2018-08-11T23:48:35.060Z,101289.20
2018-08-11T23:51:02.148Z,101287.27
2018-08-11T23:53:29.145Z,101282.86
2018-08-11T23:55:56.180Z,101276.76
2018-08-11T23:58:23.243Z,101281.45
